world map with CBH marked

CBH - Airport

This information may not be accurate or current and is not valid for navigation or flight planning. No warranty of fitness for any purpose is made or implied.

flag of Algeria

Donate via PayPal

Additional information is available on the NEW Great Circle Mapper

Location
City:  Béchar, Béchar, Algeria
Name:Boudghene Ben Ali Lotfi (Leger)
ICAO / IATA:DAOR / CBH

Details
Type:Airport (Aerodrome, Airfield)
Use:Public/Civil
Latitude:31°39'02"N (31.650569)
Longitude:2°15'11"W (-2.253152)
Elevation:2661 ft (811 m)
Runways:2
Longest:10942 × 148 ft (3335 × 45 m)

Time
Timezone:UTC+1 (DST+3)
Local Time:

Weather
METAR:DAOR  132200Z 10012KT 5000 FEW030 16/06 Q1019
TAF:DAOR  (expired)

Related Locations
Nearby:
Farthest:NZPA: 12108 mi / 19486 km
Paihia [Heliport], NTL, NZ

Find:

   beyond  
but within

Other Information
Maps:
Sources:

  


 


Great Circle Mapper   Great Circle Mapper
Great Circle Mapper FAQ   Great Circle Mapper FAQ
  Karl's Home Page
KLS˛   KLS˛ Home
   GC on Facebook
Airlines of the World   Airlines of the World
Donate via PayPal


Copyright © 2004-2018, Karl L. Swartz. All rights reserved.
All trademarks mentioned herein belong to their respective owners.

Please see credits for attribution and copyright information.

Karl Swartz <karl@kls2.com>
  Powered by FreeBSD
Valid HTML 4.01!
Labeled with ICRA
hCard Microformat
Geo Microformat